Terminal Aerodrome Forecast
Issued by NWS

Home | Current Version | Previous Version | Text Only | Print | Product List | Glossary On
Versions: 1 2 3 4 5 6 7 8 9 10 11 12 13 14 15 16 17 18 19 20 21 22 23 24 25
822
FTUS46 KSEW 222333
TAFBFI
TAF
KBFI 222333Z 2300/2324 VRB03KT P6SM BKN050 BKN100
     FM230800 19010G17KT P6SM -RA OVC030
     FM232300 19012G22KT P6SM VCSH BKN040 BKN050=

USA.gov is the U.S. government's official web portal to all federal, state and local government web resources and services.